createdAt,value
2022-07-29T00:01:00.593Z,101444.31
2022-07-29T00:02:33.417Z,101449.69
2022-07-29T00:04:05.391Z,101444.38
2022-07-29T00:05:37.381Z,101442.63
2022-07-29T00:07:09.438Z,101440.03
2022-07-29T00:08:42.523Z,101437.44
2022-07-29T00:10:14.479Z,101437.44
2022-07-29T00:11:46.377Z,101432.13
2022-07-29T00:13:18.265Z,101433.91
2022-07-29T00:15:04.145Z,101431.31
2022-07-29T00:16:36.196Z,101435.72
2022-07-29T00:18:11.209Z,101434.00
2022-07-29T00:19:45.601Z,101430.53
2022-07-29T00:21:17.664Z,101426.13
2022-07-29T00:22:49.484Z,101422.59
2022-07-29T00:24:21.365Z,101420.00
2022-07-29T00:25:55.173Z,101411.22
2022-07-29T00:27:27.024Z,101404.84
2022-07-29T00:29:31.200Z,101405.78
2022-07-29T00:30:52.231Z,101401.25
2022-07-29T00:32:24.096Z,101398.72
2022-07-29T00:33:56.351Z,101390.94
2022-07-29T00:35:46.384Z,101398.13
2022-07-29T00:37:18.264Z,101400.06
2022-07-29T00:38:51.326Z,101401.06
2022-07-29T00:40:25.250Z,101409.03
2022-07-29T00:41:57.243Z,101403.72
2022-07-29T00:43:29.108Z,101414.34
2022-07-29T00:45:00.964Z,101410.84
2022-07-29T00:46:32.817Z,101416.16
2022-07-29T00:48:05.974Z,101417.03
2022-07-29T00:49:43.032Z,101427.66
2022-07-29T00:51:15.283Z,101427.66
2022-07-29T00:52:47.471Z,101437.34
2022-07-29T00:54:19.611Z,101438.28
2022-07-29T00:55:52.388Z,101437.44
2022-07-29T00:57:24.267Z,101436.44
2022-07-29T00:58:57.911Z,101437.53
2022-07-29T01:00:30.415Z,101430.44
2022-07-29T01:02:04.358Z,101429.63
2022-07-29T01:03:36.363Z,101426.13
2022-07-29T01:05:08.655Z,101420.81
2022-07-29T01:06:40.662Z,101427.06
2022-07-29T01:08:16.578Z,101421.81
2022-07-29T01:09:48.700Z,101421.94
2022-07-29T01:11:20.819Z,101422.78
2022-07-29T01:12:54.136Z,101429.84
2022-07-29T01:14:26.536Z,101430.78
2022-07-29T01:16:01.788Z,101436.09
2022-07-29T01:17:36.051Z,101443.25
2022-07-29T01:19:31.542Z,101467.19
2022-07-29T01:21:12.107Z,101496.66
2022-07-29T01:23:10.053Z,101507.66
2022-07-29T01:25:29.701Z,101503.84
2022-07-29T01:27:27.311Z,101505.22
2022-07-29T01:29:20.088Z,101493.38
2022-07-29T01:30:55.173Z,101482.94
2022-07-29T01:32:31.048Z,101500.66
2022-07-29T01:34:07.150Z,101506.88
2022-07-29T01:35:42.366Z,101506.13
2022-07-29T01:37:19.683Z,101515.06
2022-07-29T01:39:00.846Z,101505.31
2022-07-29T01:41:13.412Z,101495.63
2022-07-29T01:42:51.639Z,101492.09
2022-07-29T01:44:48.260Z,101490.31
2022-07-29T01:46:31.203Z,101488.59
2022-07-29T01:48:24.851Z,101482.63
2022-07-29T01:49:58.125Z,101473.97
2022-07-29T01:51:57.359Z,101459.31
2022-07-29T01:53:39.706Z,101457.56
2022-07-29T01:55:15.295Z,101451.44
2022-07-29T01:56:50.237Z,101455.84
2022-07-29T01:58:22.930Z,101459.34
2022-07-29T01:59:57.651Z,101458.38
2022-07-29T02:01:31.172Z,101454.00
2022-07-29T02:03:07.022Z,101462.13
2022-07-29T02:04:40.503Z,101465.97
2022-07-29T02:06:13.132Z,101458.25
2022-07-29T02:07:46.013Z,101454.91
2022-07-29T02:09:19.067Z,101451.75
2022-07-29T02:10:51.688Z,101436.97
2022-07-29T02:12:25.430Z,101430.25
2022-07-29T02:13:57.906Z,101412.97
2022-07-29T02:15:33.969Z,101404.31
2022-07-29T02:17:05.949Z,101405.38
2022-07-29T02:18:38.867Z,101399.41
2022-07-29T02:20:11.260Z,101403.88
2022-07-29T02:21:44.280Z,101401.25
2022-07-29T02:23:20.880Z,101395.94
2022-07-29T02:24:53.077Z,101407.47
2022-07-29T02:26:27.205Z,101404.88
2022-07-29T02:28:00.301Z,101411.94
2022-07-29T02:29:32.556Z,101420.88
2022-07-29T02:31:04.851Z,101425.34
2022-07-29T02:32:37.907Z,101420.28
2022-07-29T02:34:13.324Z,101438.88
2022-07-29T02:35:47.126Z,101427.47
2022-07-29T02:37:20.075Z,101430.03
2022-07-29T02:38:52.805Z,101424.63
2022-07-29T02:40:26.765Z,101416.53
2022-07-29T02:42:07.207Z,101405.06
2022-07-29T02:43:40.523Z,101386.63
2022-07-29T02:45:12.466Z,101384.84
2022-07-29T02:46:52.179Z,101382.94
2022-07-29T02:48:29.281Z,101396.09
2022-07-29T02:50:09.512Z,101396.19
2022-07-29T02:51:52.447Z,101399.75
2022-07-29T02:53:26.465Z,101403.34
2022-07-29T02:55:01.807Z,101405.06
2022-07-29T02:56:36.103Z,101404.25
2022-07-29T02:58:15.752Z,101405.06
2022-07-29T02:59:49.397Z,101412.91
2022-07-29T03:01:24.065Z,101410.28
2022-07-29T03:02:58.113Z,101410.38
2022-07-29T03:04:32.285Z,101406.78
2022-07-29T03:06:05.575Z,101400.59
2022-07-29T03:07:38.222Z,101405.00
2022-07-29T03:09:13.301Z,101392.53
2022-07-29T03:10:46.948Z,101397.94
2022-07-29T03:12:19.268Z,101396.09
2022-07-29T03:13:51.569Z,101400.47
2022-07-29T03:15:24.115Z,101412.91
2022-07-29T03:16:56.806Z,101411.44
2022-07-29T03:18:28.841Z,101418.22
2022-07-29T03:20:01.022Z,101428.31
2022-07-29T03:21:33.070Z,101418.78
2022-07-29T03:23:05.532Z,101422.19
2022-07-29T03:24:37.971Z,101420.38
2022-07-29T03:26:09.873Z,101420.31
2022-07-29T03:27:42.100Z,101421.09
2022-07-29T03:29:13.970Z,101412.97
2022-07-29T03:30:45.892Z,101421.72
2022-07-29T03:32:23.833Z,101425.28
2022-07-29T03:33:57.029Z,101425.38
2022-07-29T03:35:29.368Z,101422.75
2022-07-29T03:37:01.246Z,101432.47
2022-07-29T03:38:35.263Z,101427.16
2022-07-29T03:40:09.764Z,101428.03
2022-07-29T03:41:42.851Z,101435.38
2022-07-29T03:43:16.973Z,101433.06
2022-07-29T03:44:49.728Z,101443.28
2022-07-29T03:46:22.153Z,101445.31
2022-07-29T03:48:01.266Z,101443.06
2022-07-29T03:49:33.964Z,101445.94
2022-07-29T03:51:05.894Z,101455.75
2022-07-29T03:52:39.247Z,101455.06
2022-07-29T03:54:11.469Z,101446.34
2022-07-29T03:55:46.601Z,101439.28
2022-07-29T03:57:22.901Z,101441.91
2022-07-29T03:58:55.839Z,101426.91
2022-07-29T04:00:28.652Z,101417.94
2022-07-29T04:02:01.362Z,101422.19
2022-07-29T04:03:33.475Z,101422.28
2022-07-29T04:05:05.661Z,101421.47
2022-07-29T04:06:46.385Z,101415.25
2022-07-29T04:08:20.587Z,101417.03
2022-07-29T04:09:52.467Z,101413.44
2022-07-29T04:11:27.156Z,101411.63
2022-07-29T04:13:00.341Z,101407.25
2022-07-29T04:14:36.538Z,101405.47
2022-07-29T04:16:08.455Z,101407.19
2022-07-29T04:17:40.337Z,101414.13
2022-07-29T04:19:12.220Z,101414.91
2022-07-29T04:20:44.171Z,101418.47
2022-07-29T04:22:16.014Z,101420.16
2022-07-29T04:23:53.147Z,101425.44
2022-07-29T04:25:25.977Z,101420.06
2022-07-29T04:26:57.833Z,101416.53
2022-07-29T04:28:29.668Z,101416.53
2022-07-29T04:30:01.529Z,101420.81
2022-07-29T04:31:33.570Z,101421.72
2022-07-29T04:33:06.908Z,101436.66
2022-07-29T04:34:39.727Z,101434.88
2022-07-29T04:36:28.570Z,101435.69
2022-07-29T04:38:01.801Z,101434.97
2022-07-29T04:39:33.749Z,101442.94
2022-07-29T04:41:07.779Z,101441.06
2022-07-29T04:42:45.046Z,101444.53
2022-07-29T04:44:19.410Z,101442.63
2022-07-29T04:45:51.507Z,101441.63
2022-07-29T04:47:25.366Z,101451.31
2022-07-29T04:48:57.260Z,101443.38
2022-07-29T04:50:29.321Z,101446.09
2022-07-29T04:52:01.329Z,101438.25
2022-07-29T04:53:33.177Z,101436.44
2022-07-29T04:55:06.141Z,101433.88
2022-07-29T04:56:38.024Z,101430.41
2022-07-29T04:58:09.980Z,101425.97
2022-07-29T04:59:41.797Z,101425.09
2022-07-29T05:01:13.745Z,101423.19
2022-07-29T05:02:45.831Z,101428.44
2022-07-29T05:04:18.280Z,101438.16
2022-07-29T05:05:50.331Z,101435.53
2022-07-29T05:07:22.265Z,101432.91
2022-07-29T05:08:54.122Z,101428.50
2022-07-29T05:10:26.496Z,101422.34
2022-07-29T05:11:58.431Z,101421.41
2022-07-29T05:13:30.594Z,101411.84
2022-07-29T05:15:18.792Z,101414.53
2022-07-29T05:16:52.234Z,101403.94
2022-07-29T05:18:25.999Z,101395.19
2022-07-29T05:19:58.216Z,101408.31
2022-07-29T05:21:30.074Z,101403.03
2022-07-29T05:23:02.796Z,101410.97
2022-07-29T05:24:34.539Z,101412.69
2022-07-29T05:26:06.447Z,101414.69
2022-07-29T05:27:38.450Z,101410.31
2022-07-29T05:29:42.726Z,101411.19
2022-07-29T05:31:02.970Z,101420.00
2022-07-29T05:32:35.043Z,101415.59
2022-07-29T05:34:06.906Z,101412.88
2022-07-29T05:35:38.751Z,101411.88
2022-07-29T05:37:10.707Z,101412.78
2022-07-29T05:38:42.606Z,101404.88
2022-07-29T05:40:14.497Z,101411.06
2022-07-29T05:41:51.533Z,101403.13
2022-07-29T05:43:24.167Z,101409.31
2022-07-29T05:44:56.342Z,101404.03
2022-07-29T05:46:28.291Z,101408.44
2022-07-29T05:48:00.157Z,101411.78
2022-07-29T05:49:32.292Z,101404.81
2022-07-29T05:51:04.358Z,101408.38
2022-07-29T05:52:36.226Z,101405.66
2022-07-29T05:54:08.117Z,101418.03
2022-07-29T05:55:39.976Z,101418.00
2022-07-29T05:57:19.116Z,101424.94
2022-07-29T05:58:51.012Z,101436.44
2022-07-29T06:00:25.252Z,101429.41
2022-07-29T06:01:58.289Z,101432.91
2022-07-29T06:03:31.372Z,101437.34
2022-07-29T06:05:03.656Z,101440.91
2022-07-29T06:06:35.844Z,101441.78
2022-07-29T06:08:08.404Z,101438.25
2022-07-29T06:09:40.533Z,101443.59
2022-07-29T06:11:12.520Z,101443.56
2022-07-29T06:12:44.405Z,101449.75
2022-07-29T06:14:16.635Z,101452.31
2022-07-29T06:15:48.861Z,101455.00
2022-07-29T06:17:20.801Z,101454.09
2022-07-29T06:18:55.862Z,101450.63
2022-07-29T06:20:30.918Z,101462.13
2022-07-29T06:22:03.209Z,101454.22
2022-07-29T06:23:35.079Z,101456.94
2022-07-29T06:25:07.393Z,101458.69
2022-07-29T06:26:42.024Z,101455.22
2022-07-29T06:28:13.954Z,101448.19
2022-07-29T06:29:45.844Z,101451.78
2022-07-29T06:31:18.569Z,101455.34
2022-07-29T06:32:50.571Z,101446.63
2022-07-29T06:34:22.471Z,101455.47
2022-07-29T06:35:57.886Z,101463.47
2022-07-29T06:37:29.879Z,101466.25
2022-07-29T06:39:13.219Z,101482.47
2022-07-29T06:41:01.266Z,101488.94
2022-07-29T06:42:33.309Z,101487.38
2022-07-29T06:44:05.776Z,101486.75
2022-07-29T06:45:37.822Z,101499.25
2022-07-29T06:47:09.669Z,101496.78
2022-07-29T06:48:43.480Z,101498.44
2022-07-29T06:50:15.487Z,101492.19
2022-07-29T06:51:47.690Z,101494.84
2022-07-29T06:53:19.517Z,101495.69
2022-07-29T06:56:28.754Z,101506.34
2022-07-29T06:58:00.615Z,101507.25
2022-07-29T06:59:35.808Z,101505.50
2022-07-29T07:01:08.024Z,101507.09
2022-07-29T07:02:39.951Z,101506.16
2022-07-29T07:04:12.549Z,101499.81
2022-07-29T07:05:45.353Z,101505.72
2022-07-29T07:07:17.076Z,101509.06
2022-07-29T07:08:49.868Z,101501.75
2022-07-29T07:10:21.754Z,101498.88
2022-07-29T07:11:55.974Z,101493.72
2022-07-29T07:13:29.237Z,101506.09
2022-07-29T07:15:01.091Z,101508.75
2022-07-29T07:16:33.309Z,101504.34
2022-07-29T07:18:09.471Z,101502.50
2022-07-29T07:19:41.335Z,101503.47
2022-07-29T07:21:19.123Z,101497.47
2022-07-29T07:22:51.375Z,101500.22
2022-07-29T07:24:25.258Z,101505.56
2022-07-29T07:25:57.107Z,101505.50
2022-07-29T07:27:29.411Z,101505.44
2022-07-29T07:29:01.552Z,101507.94
2022-07-29T07:30:33.761Z,101502.47
2022-07-29T07:32:06.042Z,101506.75
2022-07-29T07:33:38.063Z,101499.59
2022-07-29T07:35:10.868Z,101505.63
2022-07-29T07:36:42.603Z,101508.22
2022-07-29T07:38:14.500Z,101507.44
2022-07-29T07:39:46.439Z,101507.56
2022-07-29T07:41:18.349Z,101503.97
2022-07-29T07:42:50.241Z,101510.13
2022-07-29T07:44:22.970Z,101507.44
2022-07-29T07:45:55.178Z,101503.81
2022-07-29T07:47:27.920Z,101493.00
2022-07-29T07:48:59.948Z,101498.13
2022-07-29T07:50:32.016Z,101499.75
2022-07-29T07:52:04.293Z,101497.06
2022-07-29T07:53:36.302Z,101495.28
2022-07-29T07:55:08.580Z,101503.06
2022-07-29T07:56:40.436Z,101503.88
2022-07-29T07:58:12.890Z,101512.50
2022-07-29T07:59:44.776Z,101509.81
2022-07-29T08:01:20.166Z,101515.06
2022-07-29T08:02:52.179Z,101516.81
2022-07-29T08:04:28.541Z,101516.88
2022-07-29T08:06:00.813Z,101511.63
2022-07-29T08:07:32.703Z,101509.81
2022-07-29T08:09:27.658Z,101515.06
2022-07-29T08:10:57.552Z,101512.38
2022-07-29T08:12:29.354Z,101516.84
2022-07-29T08:14:02.449Z,101522.19
2022-07-29T08:15:34.996Z,101515.94
2022-07-29T08:17:06.927Z,101515.91
2022-07-29T08:18:40.019Z,101510.59
2022-07-29T08:20:12.072Z,101505.34
2022-07-29T08:21:43.960Z,101514.19
2022-07-29T08:23:15.792Z,101523.06
2022-07-29T08:24:54.890Z,101523.09
2022-07-29T08:26:27.625Z,101523.16
2022-07-29T08:28:00.035Z,101521.44
2022-07-29T08:29:31.894Z,101523.97
2022-07-29T08:31:03.793Z,101528.44
2022-07-29T08:34:28.095Z,101536.38
2022-07-29T08:36:00.519Z,101538.94
2022-07-29T08:37:32.333Z,101537.03
2022-07-29T08:39:04.667Z,101544.09
2022-07-29T08:40:37.086Z,101545.75
2022-07-29T08:42:09.092Z,101542.94
2022-07-29T08:43:42.113Z,101551.63
2022-07-29T08:45:16.998Z,101544.44
2022-07-29T08:46:50.623Z,101548.63
2022-07-29T08:48:24.255Z,101542.22
2022-07-29T08:49:56.138Z,101543.78
2022-07-29T08:51:28.890Z,101549.81
2022-07-29T08:53:00.670Z,101551.44
2022-07-29T08:54:32.526Z,101543.31
2022-07-29T08:56:04.624Z,101545.81
2022-07-29T08:57:37.146Z,101548.47
2022-07-29T08:59:09.089Z,101557.16
2022-07-29T09:00:46.914Z,101557.00
2022-07-29T09:02:22.161Z,101565.28
2022-07-29T09:03:56.927Z,101565.47
2022-07-29T09:05:30.458Z,101563.28
2022-07-29T09:07:05.486Z,101567.41
2022-07-29T09:08:37.352Z,101557.16
2022-07-29T09:10:09.611Z,101564.13
2022-07-29T09:11:42.564Z,101555.28
2022-07-29T09:13:14.430Z,101543.06
2022-07-29T09:14:46.328Z,101549.25
2022-07-29T09:16:37.275Z,101543.97
2022-07-29T09:18:20.438Z,101547.78
2022-07-29T09:20:14.280Z,101535.88
2022-07-29T09:22:03.371Z,101538.22
2022-07-29T09:23:35.838Z,101534.75
2022-07-29T09:25:08.344Z,101533.91
2022-07-29T09:26:43.199Z,101530.09
2022-07-29T09:28:19.537Z,101536.34
2022-07-29T09:30:05.277Z,101532.13
2022-07-29T09:31:39.380Z,101534.59
2022-07-29T09:33:12.114Z,101531.31
2022-07-29T09:34:44.047Z,101538.75
2022-07-29T09:36:15.900Z,101542.44
2022-07-29T09:37:48.815Z,101541.19
2022-07-29T09:39:32.498Z,101534.91
2022-07-29T09:41:06.754Z,101540.09
2022-07-29T09:42:38.924Z,101531.56
2022-07-29T09:44:10.965Z,101537.53
2022-07-29T09:45:42.909Z,101536.59
2022-07-29T09:47:15.342Z,101539.69
2022-07-29T09:49:07.493Z,101541.34
2022-07-29T09:50:41.705Z,101536.91
2022-07-29T09:52:13.537Z,101544.75
2022-07-29T09:53:45.452Z,101537.38
2022-07-29T09:55:18.577Z,101533.44
2022-07-29T09:56:51.817Z,101543.84
2022-07-29T09:58:23.928Z,101542.28
2022-07-29T09:59:59.347Z,101543.38
2022-07-29T10:01:31.184Z,101540.78
2022-07-29T10:03:03.937Z,101540.63
2022-07-29T10:04:42.493Z,101531.09
2022-07-29T10:06:16.893Z,101539.28
2022-07-29T10:07:56.977Z,101531.19
2022-07-29T10:09:30.022Z,101529.75
2022-07-29T10:11:16.826Z,101534.97
2022-07-29T10:12:57.765Z,101527.59
2022-07-29T10:14:32.271Z,101527.88
2022-07-29T10:16:04.386Z,101528.25
2022-07-29T10:17:36.367Z,101528.94
2022-07-29T10:19:14.859Z,101527.66
2022-07-29T10:20:46.815Z,101533.97
2022-07-29T10:22:36.920Z,101527.69
2022-07-29T10:24:14.608Z,101528.91
2022-07-29T10:25:47.355Z,101532.53
2022-07-29T10:27:19.257Z,101523.44
2022-07-29T10:28:51.195Z,101523.53
2022-07-29T10:30:25.023Z,101513.97
2022-07-29T10:32:05.748Z,101524.69
2022-07-29T10:34:02.725Z,101521.06
2022-07-29T10:35:59.744Z,101520.00
2022-07-29T10:38:05.565Z,101520.78
2022-07-29T10:39:44.723Z,101524.03
2022-07-29T10:41:47.745Z,101521.53
2022-07-29T10:43:26.687Z,101518.34
2022-07-29T10:45:04.316Z,101516.88
2022-07-29T10:46:37.898Z,101522.41
2022-07-29T10:48:10.976Z,101514.34
2022-07-29T10:50:01.299Z,101512.06
2022-07-29T10:51:51.723Z,101516.66
2022-07-29T10:54:05.984Z,101516.06
2022-07-29T10:55:45.514Z,101509.84
2022-07-29T10:57:26.006Z,101512.53
2022-07-29T10:59:22.778Z,101511.03
2022-07-29T11:00:56.384Z,101513.41
2022-07-29T11:02:42.426Z,101507.28
2022-07-29T11:04:16.532Z,101510.78
2022-07-29T11:05:59.910Z,101513.66
2022-07-29T11:07:45.688Z,101515.66
2022-07-29T11:09:25.815Z,101517.00
2022-07-29T11:11:22.441Z,101526.84
2022-07-29T11:13:01.517Z,101518.44
2022-07-29T11:14:52.184Z,101511.84
2022-07-29T11:16:24.916Z,101518.53
2022-07-29T11:18:01.465Z,101518.25
2022-07-29T11:19:33.715Z,101513.38
2022-07-29T11:21:53.551Z,101525.56
2022-07-29T11:23:36.782Z,101518.78
2022-07-29T11:25:16.828Z,101519.72
2022-07-29T11:27:12.106Z,101519.72
2022-07-29T11:28:54.239Z,101522.84
2022-07-29T11:30:50.864Z,101520.81
2022-07-29T11:32:25.046Z,101518.69
2022-07-29T11:34:05.505Z,101511.94
2022-07-29T11:35:39.842Z,101516.97
2022-07-29T11:37:14.843Z,101514.28
2022-07-29T11:38:46.717Z,101515.84
2022-07-29T11:40:20.223Z,101505.03
2022-07-29T11:41:53.498Z,101505.69
2022-07-29T11:43:55.841Z,101507.28
2022-07-29T11:45:44.461Z,101508.91
2022-07-29T11:47:21.517Z,101513.84
2022-07-29T11:48:53.787Z,101507.63
2022-07-29T11:50:37.065Z,101504.59
2022-07-29T11:52:10.989Z,101510.47
2022-07-29T11:53:48.354Z,101509.53
2022-07-29T11:55:32.258Z,101507.16
2022-07-29T11:57:08.019Z,101511.19
2022-07-29T11:58:40.747Z,101510.25
2022-07-29T12:00:14.498Z,101509.94
2022-07-29T12:02:02.428Z,101508.13
2022-07-29T12:03:46.118Z,101508.63
2022-07-29T12:07:11.354Z,101497.81
2022-07-29T12:08:48.136Z,101498.03
2022-07-29T12:10:30.635Z,101498.06
2022-07-29T12:12:05.427Z,101499.56
2022-07-29T12:13:40.080Z,101499.59
2022-07-29T12:15:14.015Z,101491.59
2022-07-29T12:16:47.183Z,101498.47
2022-07-29T12:18:24.026Z,101500.19
2022-07-29T12:20:03.848Z,101489.88
2022-07-29T12:21:53.995Z,101494.81
2022-07-29T12:23:29.353Z,101496.78
2022-07-29T12:25:32.398Z,101495.69
2022-07-29T12:27:05.755Z,101490.66
2022-07-29T12:28:40.748Z,101481.94
2022-07-29T12:30:17.486Z,101484.41
2022-07-29T12:31:55.050Z,101487.84
2022-07-29T12:33:30.651Z,101489.78
2022-07-29T12:35:10.339Z,101486.88
2022-07-29T12:36:43.204Z,101490.41
2022-07-29T12:38:15.376Z,101500.19
2022-07-29T12:39:47.385Z,101488.88
2022-07-29T12:41:19.307Z,101494.69
2022-07-29T12:43:13.151Z,101489.44
2022-07-29T12:44:53.941Z,101493.78
2022-07-29T12:46:25.890Z,101488.19
2022-07-29T12:47:58.672Z,101491.72
2022-07-29T12:49:30.898Z,101496.75
2022-07-29T12:51:12.819Z,101489.72
2022-07-29T12:52:45.660Z,101482.56
2022-07-29T12:54:17.520Z,101485.94
2022-07-29T12:55:52.652Z,101487.03
2022-07-29T12:57:25.095Z,101481.63
2022-07-29T12:58:56.884Z,101481.59
2022-07-29T13:00:28.812Z,101483.59
2022-07-29T13:02:01.220Z,101486.78
2022-07-29T13:03:57.477Z,101484.31
2022-07-29T13:05:49.375Z,101487.59
2022-07-29T13:07:55.254Z,101480.66
2022-07-29T13:09:23.584Z,101477.59
2022-07-29T13:10:55.745Z,101473.69
2022-07-29T13:12:27.627Z,101480.25
2022-07-29T13:14:07.041Z,101478.25
2022-07-29T13:15:41.294Z,101490.81
2022-07-29T13:17:14.677Z,101482.09
2022-07-29T13:18:46.494Z,101477.81
2022-07-29T13:20:18.366Z,101481.88
2022-07-29T13:21:50.272Z,101478.06
2022-07-29T13:23:22.322Z,101476.19
2022-07-29T13:25:04.571Z,101479.75
2022-07-29T13:26:38.124Z,101476.06
2022-07-29T13:28:12.827Z,101476.56
2022-07-29T13:29:45.050Z,101476.56
2022-07-29T13:31:17.545Z,101471.34
2022-07-29T13:32:50.129Z,101475.66
2022-07-29T13:34:24.830Z,101468.19
2022-07-29T13:35:56.691Z,101476.97
2022-07-29T13:37:30.914Z,101464.16
2022-07-29T13:39:03.750Z,101470.53
2022-07-29T13:40:36.496Z,101472.50
2022-07-29T13:42:11.088Z,101461.09
2022-07-29T13:43:43.101Z,101468.81
2022-07-29T13:45:15.244Z,101462.22
2022-07-29T13:46:47.135Z,101456.81
2022-07-29T13:48:19.105Z,101456.44
2022-07-29T13:49:56.792Z,101460.50
2022-07-29T13:51:28.683Z,101458.53
2022-07-29T13:53:00.537Z,101456.22
2022-07-29T13:54:32.448Z,101457.09
2022-07-29T13:56:06.917Z,101460.03
2022-07-29T13:57:38.780Z,101460.91
2022-07-29T13:59:10.761Z,101456.69
2022-07-29T14:00:43.923Z,101457.81
2022-07-29T14:02:15.801Z,101453.34
2022-07-29T14:03:47.748Z,101452.13
2022-07-29T14:05:19.612Z,101461.19
2022-07-29T14:06:51.733Z,101461.19
2022-07-29T14:08:23.753Z,101457.81
2022-07-29T14:09:55.779Z,101453.69
2022-07-29T14:11:30.197Z,101458.63
2022-07-29T14:13:02.277Z,101451.50
2022-07-29T14:14:38.155Z,101451.28
2022-07-29T14:16:10.309Z,101448.56
2022-07-29T14:17:42.305Z,101454.03
2022-07-29T14:19:14.414Z,101453.22
2022-07-29T14:20:48.153Z,101455.31
2022-07-29T14:22:20.237Z,101452.50
2022-07-29T14:23:55.711Z,101452.88
2022-07-29T14:25:28.241Z,101462.13
2022-07-29T14:27:00.501Z,101459.94
2022-07-29T14:28:33.340Z,101454.78
2022-07-29T14:30:06.034Z,101461.66
2022-07-29T14:31:40.747Z,101460.78
2022-07-29T14:33:12.670Z,101458.09
2022-07-29T14:34:44.524Z,101449.38
2022-07-29T14:36:16.459Z,101451.13
2022-07-29T14:37:48.389Z,101441.91
2022-07-29T14:39:20.263Z,101450.34
2022-07-29T14:40:56.255Z,101453.03
2022-07-29T14:42:28.164Z,101453.41
2022-07-29T14:44:01.763Z,101444.97
2022-07-29T14:45:33.923Z,101443.88
2022-07-29T14:47:07.796Z,101447.28
2022-07-29T14:48:40.419Z,101447.16
2022-07-29T14:50:12.411Z,101442.63
2022-07-29T14:51:44.279Z,101440.19
2022-07-29T14:53:16.405Z,101442.25
2022-07-29T14:54:48.739Z,101443.25
2022-07-29T14:56:36.604Z,101440.06
2022-07-29T14:58:18.181Z,101442.41
2022-07-29T14:59:50.126Z,101441.53
2022-07-29T15:01:22.001Z,101440.53
2022-07-29T15:03:02.609Z,101443.13
2022-07-29T15:04:35.420Z,101443.97
2022-07-29T15:06:08.095Z,101440.66
2022-07-29T15:07:40.071Z,101439.53
2022-07-29T15:09:12.032Z,101442.13
2022-07-29T15:10:43.821Z,101439.16
2022-07-29T15:12:15.690Z,101447.16
2022-07-29T15:13:47.642Z,101444.59
2022-07-29T15:15:19.495Z,101436.34
2022-07-29T15:16:54.098Z,101442.13
2022-07-29T15:18:26.112Z,101447.00
2022-07-29T15:19:57.942Z,101436.47
2022-07-29T15:21:29.796Z,101441.25
2022-07-29T15:23:01.736Z,101438.66
2022-07-29T15:24:33.961Z,101442.59
2022-07-29T15:26:05.959Z,101441.88
2022-07-29T15:27:37.908Z,101450.72
2022-07-29T15:29:10.095Z,101445.03
2022-07-29T15:30:42.007Z,101440.13
2022-07-29T15:32:13.891Z,101431.38
2022-07-29T15:33:46.003Z,101431.97
2022-07-29T15:35:17.913Z,101432.03
2022-07-29T15:36:53.345Z,101437.78
2022-07-29T15:38:28.783Z,101434.88
2022-07-29T15:40:01.021Z,101446.00
2022-07-29T15:41:34.084Z,101445.25
2022-07-29T15:43:06.944Z,101448.44
2022-07-29T15:44:38.838Z,101441.56
2022-07-29T15:46:33.391Z,101440.53
2022-07-29T15:48:07.161Z,101438.78
2022-07-29T15:49:48.056Z,101436.94
2022-07-29T15:51:21.361Z,101438.06
2022-07-29T15:52:54.331Z,101432.13
2022-07-29T15:54:26.653Z,101425.63
2022-07-29T15:55:58.433Z,101424.66
2022-07-29T15:57:30.265Z,101430.06
2022-07-29T15:59:02.142Z,101435.34
2022-07-29T16:00:34.144Z,101430.81
2022-07-29T16:02:06.299Z,101436.41
2022-07-29T16:03:40.968Z,101440.13
2022-07-29T16:05:14.988Z,101436.75
2022-07-29T16:06:47.721Z,101436.94
2022-07-29T16:08:19.676Z,101441.63
2022-07-29T16:09:53.393Z,101442.75
2022-07-29T16:11:25.386Z,101445.66
2022-07-29T16:12:57.242Z,101445.28
2022-07-29T16:14:29.174Z,101438.78
2022-07-29T16:16:04.195Z,101444.22
2022-07-29T16:17:36.354Z,101438.34
2022-07-29T16:19:10.592Z,101434.41
2022-07-29T16:20:42.829Z,101431.75
2022-07-29T16:22:14.810Z,101436.94
2022-07-29T16:23:46.670Z,101447.00
2022-07-29T16:25:43.957Z,101435.25
2022-07-29T16:27:17.267Z,101440.69
2022-07-29T16:28:49.103Z,101448.41
2022-07-29T16:30:23.599Z,101445.31
2022-07-29T16:31:55.602Z,101439.53
2022-07-29T16:33:28.472Z,101440.38
2022-07-29T16:35:22.027Z,101443.72
2022-07-29T16:36:53.844Z,101441.09
2022-07-29T16:38:25.894Z,101442.34
2022-07-29T16:39:57.742Z,101437.03
2022-07-29T16:41:29.831Z,101437.59
2022-07-29T16:43:01.709Z,101432.44
2022-07-29T16:44:34.829Z,101430.91
2022-07-29T16:46:11.231Z,101431.34
2022-07-29T16:47:51.782Z,101432.22
2022-07-29T16:49:27.437Z,101428.41
2022-07-29T16:51:01.719Z,101433.44
2022-07-29T16:52:33.890Z,101435.22
2022-07-29T16:54:05.976Z,101434.13
2022-07-29T16:55:38.191Z,101426.75
2022-07-29T16:57:10.096Z,101424.59
2022-07-29T16:58:43.949Z,101433.13
2022-07-29T17:00:17.788Z,101436.06
2022-07-29T17:01:49.739Z,101435.56
2022-07-29T17:03:21.637Z,101433.72
2022-07-29T17:04:53.569Z,101432.22
2022-07-29T17:06:25.512Z,101433.06
2022-07-29T17:07:58.584Z,101434.75
2022-07-29T17:09:31.147Z,101435.63
2022-07-29T17:11:02.967Z,101428.63
2022-07-29T17:12:39.889Z,101427.41
2022-07-29T17:14:11.889Z,101430.44
2022-07-29T17:15:44.271Z,101431.97
2022-07-29T17:17:20.957Z,101432.44
2022-07-29T17:19:08.997Z,101434.63
2022-07-29T17:20:42.086Z,101435.53
2022-07-29T17:22:19.079Z,101439.19
2022-07-29T17:23:52.565Z,101437.34
2022-07-29T17:25:24.431Z,101440.72
2022-07-29T17:26:56.724Z,101442.56
2022-07-29T17:28:28.727Z,101445.66
2022-07-29T17:30:00.644Z,101444.13
2022-07-29T17:31:32.551Z,101440.84
2022-07-29T17:33:04.544Z,101446.69
2022-07-29T17:34:40.784Z,101442.69
2022-07-29T17:36:27.691Z,101441.28
2022-07-29T17:37:59.677Z,101438.59
2022-07-29T17:39:31.591Z,101445.72
2022-07-29T17:41:07.794Z,101444.41
2022-07-29T17:42:41.600Z,101447.53
2022-07-29T17:44:13.919Z,101454.00
2022-07-29T17:45:49.644Z,101450.59
2022-07-29T17:47:22.550Z,101451.78
2022-07-29T17:48:56.022Z,101453.50
2022-07-29T17:50:27.959Z,101447.25
2022-07-29T17:52:01.142Z,101462.13
2022-07-29T17:53:33.148Z,101461.56
2022-07-29T17:55:05.928Z,101447.38
2022-07-29T17:56:37.884Z,101455.97
2022-07-29T17:58:09.734Z,101452.53
2022-07-29T17:59:41.588Z,101453.72
2022-07-29T18:01:14.588Z,101457.72
2022-07-29T18:02:47.549Z,101453.50
2022-07-29T18:04:21.238Z,101454.91
2022-07-29T18:05:53.735Z,101455.94
2022-07-29T18:07:25.465Z,101467.03
2022-07-29T18:08:57.421Z,101461.97
2022-07-29T18:10:29.442Z,101460.53
2022-07-29T18:12:01.332Z,101465.84